createdAt,value
2023-04-11T00:00:34.437Z,100114.19
2023-04-11T00:03:04.625Z,100085.88
2023-04-11T00:05:31.932Z,100092.09
2023-04-11T00:07:58.904Z,100090.28
2023-04-11T00:10:26.166Z,100096.56
2023-04-11T00:12:56.793Z,100090.41
2023-04-11T00:15:27.038Z,100093.06
2023-04-11T00:17:55.120Z,100049.00
2023-04-11T00:20:22.630Z,100080.81
2023-04-11T00:22:49.694Z,100098.50
2023-04-11T00:25:17.522Z,100095.88
2023-04-11T00:27:44.542Z,100105.59
2023-04-11T00:30:12.008Z,100070.41
2023-04-11T00:32:39.032Z,100100.34
2023-04-11T00:35:06.693Z,100103.72
2023-04-11T00:37:36.330Z,100095.78
2023-04-11T00:40:05.999Z,100064.00
2023-04-11T00:42:33.589Z,100096.63
2023-04-11T00:45:00.697Z,100095.69
2023-04-11T00:47:27.950Z,100076.31
2023-04-11T00:49:55.014Z,100073.50
2023-04-11T00:52:22.046Z,100059.31
2023-04-11T00:54:49.096Z,100083.06
2023-04-11T00:57:16.332Z,100094.47
2023-04-11T00:59:44.796Z,100097.00
2023-04-11T01:02:11.911Z,100094.28
2023-04-11T01:04:40.350Z,100097.69
2023-04-11T01:07:08.764Z,100073.78
2023-04-11T01:09:36.587Z,100085.13
2023-04-11T01:12:05.655Z,100101.03
2023-04-11T01:14:32.708Z,100108.00
2023-04-11T01:17:02.436Z,100099.25
2023-04-11T01:19:30.929Z,100076.19
2023-04-11T01:21:59.276Z,100107.81
2023-04-11T01:24:26.798Z,100096.25
2023-04-11T01:26:54.280Z,100104.09
2023-04-11T01:29:21.361Z,100099.63
2023-04-11T01:31:51.469Z,100097.03
2023-04-11T01:34:19.660Z,100083.78
2023-04-11T01:36:47.708Z,100091.78
2023-04-11T01:39:15.489Z,100100.53
2023-04-11T01:41:43.839Z,100082.97
2023-04-11T01:44:11.138Z,100039.72
2023-04-11T01:46:38.285Z,100097.16
2023-04-11T01:49:07.003Z,100046.91
2023-04-11T01:51:34.003Z,100087.56
2023-04-11T01:54:00.997Z,100085.75
2023-04-11T01:56:28.125Z,100090.19
2023-04-11T01:58:59.089Z,100055.81
2023-04-11T02:01:27.141Z,100088.50
2023-04-11T02:03:54.461Z,100092.81
2023-04-11T02:06:21.675Z,100077.78
2023-04-11T02:08:48.875Z,100093.59
2023-04-11T02:11:15.923Z,100090.00
2023-04-11T02:13:42.866Z,100094.19
2023-04-11T02:16:15.514Z,100072.75
2023-04-11T02:18:44.174Z,100071.84
2023-04-11T02:21:11.402Z,100087.75
2023-04-11T02:23:38.610Z,100085.22
2023-04-11T02:26:06.377Z,100081.63
2023-04-11T02:28:33.404Z,100061.44
2023-04-11T02:31:00.765Z,100077.38
2023-04-11T02:33:27.961Z,100081.00
2023-04-11T02:35:55.441Z,100100.38
2023-04-11T02:38:22.582Z,100071.47
2023-04-11T02:40:51.496Z,100065.34
2023-04-11T02:43:18.459Z,100042.44
2023-04-11T02:45:45.800Z,100039.00
2023-04-11T02:48:14.444Z,100040.00
2023-04-11T02:50:44.691Z,100053.31
2023-04-11T02:53:12.134Z,100061.41
2023-04-11T02:55:46.871Z,100063.34
2023-04-11T02:58:18.217Z,100073.94
2023-04-11T03:00:49.866Z,100073.97
2023-04-11T03:03:17.416Z,100044.78
2023-04-11T03:05:47.256Z,100078.28
2023-04-11T03:08:18.205Z,100051.00
2023-04-11T03:10:50.762Z,100065.81
2023-04-11T03:13:18.114Z,100073.56
2023-04-11T03:15:45.405Z,100079.59
2023-04-11T03:18:13.393Z,100081.16
2023-04-11T03:20:44.130Z,100078.41
2023-04-11T03:23:13.519Z,100040.66
2023-04-11T03:25:40.983Z,100026.59
2023-04-11T03:28:08.885Z,100042.69
2023-04-11T03:30:36.118Z,100016.38
2023-04-11T03:33:03.369Z,100044.63
2023-04-11T03:35:31.620Z,100064.13
2023-04-11T03:37:59.126Z,100074.47
2023-04-11T03:40:27.241Z,100053.38
2023-04-11T03:43:04.927Z,100052.41
2023-04-11T03:45:35.168Z,100062.06
2023-04-11T03:48:06.343Z,100025.03
2023-04-11T03:50:46.978Z,100055.91
2023-04-11T03:53:16.900Z,100026.84
2023-04-11T03:55:45.761Z,100064.75
2023-04-11T03:58:16.487Z,100062.28
2023-04-11T04:00:43.952Z,100071.25
2023-04-11T04:03:11.145Z,100029.00
2023-04-11T04:05:43.058Z,100060.97
2023-04-11T04:08:11.610Z,100072.50
2023-04-11T04:10:43.118Z,100073.50
2023-04-11T04:13:11.075Z,100062.13
2023-04-11T04:15:42.530Z,100032.22
2023-04-11T04:18:11.817Z,100060.50
2023-04-11T04:20:56.940Z,100070.34
2023-04-11T04:23:26.959Z,100042.88
2023-04-11T04:26:32.550Z,100050.91
2023-04-11T04:29:14.562Z,100034.22
2023-04-11T04:31:53.285Z,100074.75
2023-04-11T04:34:29.404Z,100056.38
2023-04-11T04:36:59.818Z,99994.63
2023-04-11T04:39:38.222Z,100072.16
2023-04-11T04:42:07.353Z,100065.19
2023-04-11T04:44:38.844Z,100031.66
2023-04-11T04:47:14.693Z,100045.88
2023-04-11T04:49:43.100Z,100046.81
2023-04-11T04:52:10.540Z,100077.75
2023-04-11T04:54:37.576Z,100025.81
2023-04-11T04:57:04.712Z,100029.28
2023-04-11T04:59:33.248Z,100065.56
2023-04-11T05:02:09.867Z,99994.88
2023-04-11T05:04:37.124Z,100041.59
2023-04-11T05:07:04.312Z,100051.25
2023-04-11T05:09:37.825Z,100051.41
2023-04-11T05:12:20.422Z,99973.81
2023-04-11T05:14:47.890Z,100063.81
2023-04-11T05:17:15.080Z,100008.25
2023-04-11T05:19:42.381Z,100002.28
2023-04-11T05:22:10.970Z,100041.13
2023-04-11T05:24:42.797Z,100026.28
2023-04-11T05:27:13.425Z,100013.03
2023-04-11T05:29:42.113Z,100003.38
2023-04-11T05:32:09.676Z,100041.38
2023-04-11T05:34:51.785Z,100015.00
2023-04-11T05:37:22.959Z,99985.16
2023-04-11T05:39:52.816Z,100032.81
2023-04-11T05:42:21.474Z,100046.97
2023-04-11T05:44:48.357Z,100047.97
2023-04-11T05:47:15.918Z,100052.50
2023-04-11T05:49:43.509Z,100029.72
2023-04-11T05:52:10.667Z,100023.63
2023-04-11T05:54:37.831Z,100051.81
2023-04-11T05:57:06.453Z,100052.81
2023-04-11T05:59:34.769Z,100052.00
2023-04-11T06:02:02.302Z,100041.44
2023-04-11T06:04:29.668Z,100039.69
2023-04-11T06:06:57.097Z,100042.31
2023-04-11T06:09:24.371Z,100039.69
2023-04-11T06:11:51.458Z,100050.25
2023-04-11T06:14:18.425Z,100045.81
2023-04-11T06:16:45.630Z,100021.13
2023-04-11T06:19:12.726Z,100007.94
2023-04-11T06:21:39.783Z,100018.50
2023-04-11T06:24:11.022Z,100040.47
2023-04-11T06:26:38.433Z,100013.22
2023-04-11T06:29:06.694Z,100032.56
2023-04-11T06:31:34.367Z,100026.41
2023-04-11T06:34:02.141Z,99964.03
2023-04-11T06:36:30.223Z,100039.59
2023-04-11T06:38:57.151Z,100043.97
2023-04-11T06:41:24.577Z,100021.03
2023-04-11T06:43:51.788Z,99961.94
2023-04-11T06:46:18.939Z,100033.47
2023-04-11T06:48:48.674Z,100038.22
2023-04-11T06:51:32.122Z,99997.06
2023-04-11T06:54:02.540Z,100027.72
2023-04-11T06:56:30.019Z,99917.72
2023-04-11T06:58:57.111Z,100027.53
2023-04-11T07:01:30.939Z,99922.06
2023-04-11T07:03:59.457Z,100011.63
2023-04-11T07:06:27.244Z,99926.94
2023-04-11T07:08:54.417Z,99972.94
2023-04-11T07:11:21.951Z,99936.59
2023-04-11T07:13:50.418Z,100006.38
2023-04-11T07:16:18.065Z,99901.63
2023-04-11T07:18:45.759Z,99950.22
2023-04-11T07:21:13.802Z,99907.06
2023-04-11T07:23:42.184Z,99890.53
2023-04-11T07:26:11.206Z,99957.66
2023-04-11T07:28:40.323Z,99990.09
2023-04-11T07:31:09.775Z,99977.47
2023-04-11T07:33:37.919Z,99981.72
2023-04-11T07:36:06.065Z,99976.59
2023-04-11T07:39:21.658Z,99981.69
2023-04-11T07:42:19.187Z,99987.41
2023-04-11T07:44:46.745Z,99978.66
2023-04-11T07:47:13.593Z,99974.94
2023-04-11T07:49:40.877Z,99943.94
2023-04-11T07:52:07.842Z,99961.81
2023-04-11T07:54:34.946Z,99960.53
2023-04-11T07:57:02.277Z,99963.16
2023-04-11T07:59:29.325Z,99961.75
2023-04-11T08:02:05.772Z,99958.84
2023-04-11T08:04:37.145Z,99928.94
2023-04-11T08:07:05.133Z,99929.59
2023-04-11T08:13:08.957Z,99899.47
2023-04-11T08:16:27.688Z,99812.28
2023-04-11T08:18:59.274Z,99812.69
2023-04-11T08:22:07.055Z,99926.63
2023-04-11T08:27:51.533Z,99911.75
2023-04-11T08:45:10.190Z,99819.47
2023-04-11T08:48:07.382Z,99869.59
2023-04-11T08:50:57.926Z,99860.78
2023-04-11T08:53:26.421Z,99777.50
2023-04-11T08:55:53.943Z,99768.78
2023-04-11T08:58:21.551Z,99850.66
2023-04-11T09:00:48.892Z,99780.88
2023-04-11T09:03:17.168Z,99882.13
2023-04-11T09:05:56.900Z,99814.38
2023-04-11T09:08:39.516Z,99858.81
2023-04-11T09:11:07.039Z,99897.91
2023-04-11T09:13:34.442Z,99783.59
2023-04-11T09:16:12.928Z,99897.31
2023-04-11T09:18:48.928Z,99829.91
2023-04-11T09:21:17.214Z,99886.94
2023-04-11T09:23:44.613Z,99776.22
2023-04-11T09:26:13.024Z,99874.63
2023-04-11T09:31:46.771Z,99745.28
2023-04-11T09:34:23.772Z,99784.75
2023-04-11T09:36:55.836Z,99869.59
2023-04-11T09:39:23.231Z,99868.16
2023-04-11T09:41:50.795Z,99781.00
2023-04-11T09:44:18.117Z,99828.47
2023-04-11T09:46:59.756Z,99765.31
2023-04-11T09:49:30.134Z,99853.63
2023-04-11T09:51:58.103Z,99832.03
2023-04-11T09:54:27.529Z,99749.88
2023-04-11T09:57:02.643Z,99735.19
2023-04-11T09:59:42.191Z,99753.22
2023-04-11T10:02:16.073Z,99725.63
2023-04-11T10:05:04.570Z,99705.50
2023-04-11T10:08:04.990Z,99817.81
2023-04-11T10:11:13.654Z,99749.25
2023-04-11T10:13:41.538Z,99812.44
2023-04-11T10:16:20.403Z,99812.00
2023-04-11T10:18:54.566Z,99820.16
2023-04-11T10:21:30.710Z,99813.84
2023-04-11T10:24:07.536Z,99668.06
2023-04-11T10:27:19.331Z,99804.50
2023-04-11T10:29:49.219Z,99699.09
2023-04-11T10:32:23.074Z,99792.75
2023-04-11T10:34:50.477Z,99793.94
2023-04-11T10:37:19.347Z,99743.63
2023-04-11T10:40:00.770Z,99793.88
2023-04-11T10:42:38.400Z,99774.53
2023-04-11T10:45:28.930Z,99790.13
2023-04-11T10:47:59.316Z,99769.28
2023-04-11T10:50:26.952Z,99771.22
2023-04-11T10:53:34.213Z,99765.47
2023-04-11T10:59:32.652Z,99751.38
2023-04-11T11:02:01.741Z,99758.31
2023-04-11T11:04:36.835Z,99662.84
2023-04-11T11:13:21.914Z,99646.75
2023-04-11T11:15:50.742Z,99647.97
2023-04-11T11:18:18.708Z,99672.09
2023-04-11T11:20:46.320Z,99731.88
2023-04-11T11:23:13.572Z,99673.59
2023-04-11T11:25:52.706Z,99721.34
2023-04-11T11:28:20.357Z,99618.31
2023-04-11T11:34:22.827Z,99653.97
2023-04-11T11:36:52.892Z,99699.53
2023-04-11T11:39:22.033Z,99613.56
2023-04-11T11:41:51.332Z,99632.22
2023-04-11T11:44:29.672Z,99656.09
2023-04-11T11:47:12.694Z,99624.38
2023-04-11T11:49:56.893Z,99688.78
2023-04-11T11:52:41.885Z,99713.97
2023-04-11T11:55:18.289Z,99714.28
2023-04-11T11:57:47.239Z,99592.47
2023-04-11T12:00:16.030Z,99705.13
2023-04-11T12:02:45.068Z,99658.41
2023-04-11T12:05:12.780Z,99670.84
2023-04-11T12:07:40.756Z,99578.59
2023-04-11T12:10:11.974Z,99633.56
2023-04-11T12:12:42.777Z,99599.28
2023-04-11T12:15:16.131Z,99672.16
2023-04-11T12:17:48.076Z,99595.81
2023-04-11T12:20:15.890Z,99569.69
2023-04-11T12:22:43.470Z,99587.81
2023-04-11T12:25:12.349Z,99669.81
2023-04-11T12:27:42.505Z,99647.47
2023-04-11T12:30:11.338Z,99659.41
2023-04-11T12:32:38.682Z,99653.94
2023-04-11T12:35:06.756Z,99546.69
2023-04-11T12:37:34.779Z,99601.81
2023-04-11T12:40:02.314Z,99581.28
2023-04-11T12:42:30.899Z,99659.59
2023-04-11T12:44:58.631Z,99645.09
2023-04-11T12:47:26.089Z,99655.44
2023-04-11T12:49:53.600Z,99612.56
2023-04-11T12:52:21.632Z,99657.56
2023-04-11T12:54:48.819Z,99542.59
2023-04-11T12:57:16.009Z,99554.84
2023-04-11T12:59:43.408Z,99568.69
2023-04-11T13:02:10.762Z,99567.16
2023-04-11T13:04:38.026Z,99634.03
2023-04-11T13:07:05.307Z,99636.25
2023-04-11T13:09:34.707Z,99590.41
2023-04-11T13:12:02.857Z,99520.53
2023-04-11T13:14:30.809Z,99637.78
2023-04-11T13:16:58.219Z,99633.41
2023-04-11T13:19:25.236Z,99536.72
2023-04-11T13:21:52.416Z,99637.41
2023-04-11T13:24:19.716Z,99562.44
2023-04-11T13:26:47.115Z,99550.25
2023-04-11T13:29:14.381Z,99523.19
2023-04-11T13:31:41.679Z,99599.56
2023-04-11T13:34:09.201Z,99549.47
2023-04-11T13:36:36.487Z,99610.28
2023-04-11T13:39:04.206Z,99578.50
2023-04-11T13:41:32.648Z,99617.25
2023-04-11T13:43:59.762Z,99593.81
2023-04-11T13:46:27.639Z,99602.28
2023-04-11T13:48:54.952Z,99619.66
2023-04-11T13:51:25.739Z,99607.69
2023-04-11T13:54:09.796Z,99476.91
2023-04-11T13:56:38.059Z,99521.41
2023-04-11T13:59:05.192Z,99526.38
2023-04-11T14:01:32.823Z,99590.53
2023-04-11T14:04:00.829Z,99620.75
2023-04-11T14:06:28.680Z,99562.25
2023-04-11T14:08:55.949Z,99622.13
2023-04-11T14:11:23.238Z,99613.13
2023-04-11T14:13:50.707Z,99558.75
2023-04-11T14:16:18.019Z,99502.75
2023-04-11T14:18:45.421Z,99591.72
2023-04-11T14:21:12.766Z,99527.03
2023-04-11T14:23:40.231Z,99522.72
2023-04-11T14:26:07.486Z,99536.31
2023-04-11T14:28:34.882Z,99502.63
2023-04-11T14:31:02.612Z,99537.22
2023-04-11T14:33:30.165Z,99481.94
2023-04-11T14:35:57.481Z,99528.91
2023-04-11T14:38:24.773Z,99475.75
2023-04-11T14:41:00.180Z,99436.69
2023-04-11T14:43:38.330Z,99530.91
2023-04-11T14:46:05.936Z,99592.03
2023-04-11T14:48:33.149Z,99589.47
2023-04-11T14:51:03.310Z,99582.59
2023-04-11T14:53:30.867Z,99538.47
2023-04-11T14:55:58.384Z,99528.72
2023-04-11T14:58:25.607Z,99552.19
2023-04-11T15:00:52.909Z,99571.56
2023-04-11T15:03:20.379Z,99567.09
2023-04-11T15:05:47.677Z,99465.63
2023-04-11T15:08:15.217Z,99507.13
2023-04-11T15:10:42.834Z,99507.59
2023-04-11T15:13:12.024Z,99562.06
2023-04-11T15:15:39.956Z,99459.75
2023-04-11T15:18:30.394Z,99591.13
2023-04-11T15:21:00.423Z,99512.00
2023-04-11T15:23:27.997Z,99578.69
2023-04-11T15:25:59.253Z,99586.78
2023-04-11T15:28:30.657Z,99497.94
2023-04-11T15:37:13.591Z,99590.13
2023-04-11T15:39:41.465Z,99593.75
2023-04-11T15:42:10.418Z,99510.81
2023-04-11T15:44:37.424Z,99527.44
2023-04-11T15:47:04.741Z,99586.09
2023-04-11T15:49:31.822Z,99587.06
2023-04-11T15:51:59.094Z,99553.91
2023-04-11T15:54:26.141Z,99513.22
2023-04-11T15:56:53.116Z,99570.00
2023-04-11T15:59:20.501Z,99564.19
2023-04-11T16:01:47.613Z,99506.66
2023-04-11T16:04:14.845Z,99574.94
2023-04-11T16:06:41.880Z,99588.22
2023-04-11T16:09:08.867Z,99593.69
2023-04-11T16:11:38.740Z,99589.44
2023-04-11T16:14:06.422Z,99582.63
2023-04-11T16:16:33.511Z,99586.28
2023-04-11T16:19:00.513Z,99605.75
2023-04-11T16:21:27.633Z,99602.38
2023-04-11T16:23:54.974Z,99576.28
2023-04-11T16:26:22.827Z,99586.03
2023-04-11T16:28:50.720Z,99594.03
2023-04-11T16:31:22.034Z,99599.34
2023-04-11T16:33:49.380Z,99577.59
2023-04-11T16:36:19.622Z,99588.22
2023-04-11T16:38:47.696Z,99589.88
2023-04-11T16:41:15.993Z,99604.97
2023-04-11T16:43:43.165Z,99599.81
2023-04-11T16:46:16.814Z,99606.03
2023-04-11T16:48:44.710Z,99602.59
2023-04-11T16:51:12.589Z,99594.88
2023-04-11T16:53:41.209Z,99596.69
2023-04-11T16:56:08.695Z,99560.13
2023-04-11T16:58:35.788Z,99574.09
2023-04-11T17:01:02.888Z,99603.00
2023-04-11T17:03:30.115Z,99614.53
2023-04-11T17:05:58.174Z,99606.69
2023-04-11T17:08:26.606Z,99619.03
2023-04-11T17:10:53.687Z,99622.63
2023-04-11T17:13:28.098Z,99572.88
2023-04-11T17:15:56.243Z,99618.47
2023-04-11T17:18:23.310Z,99615.84
2023-04-11T17:20:50.482Z,99615.06
2023-04-11T17:23:19.458Z,99625.66
2023-04-11T17:25:54.157Z,99620.47
2023-04-11T17:28:23.163Z,99620.53
2023-04-11T17:30:50.959Z,99620.50
2023-04-11T17:33:19.023Z,99621.44
2023-04-11T17:35:46.135Z,99605.63
2023-04-11T17:38:13.202Z,99626.75
2023-04-11T17:40:43.999Z,99617.16
2023-04-11T17:43:11.513Z,99610.22
2023-04-11T17:45:38.667Z,99619.03
2023-04-11T17:48:08.309Z,99610.31
2023-04-11T17:50:35.402Z,99592.72
2023-04-11T17:53:02.404Z,99599.72
2023-04-11T17:55:29.593Z,99616.53
2023-04-11T17:57:58.042Z,99618.34
2023-04-11T18:00:26.650Z,99606.13
2023-04-11T18:02:57.912Z,99623.59
2023-04-11T18:05:27.425Z,99592.94
2023-04-11T18:07:59.408Z,99619.25
2023-04-11T18:10:28.032Z,99613.16
2023-04-11T18:12:56.644Z,99621.09
2023-04-11T18:15:24.805Z,99624.63
2023-04-11T18:17:52.857Z,99612.34
2023-04-11T18:20:20.040Z,99620.34
2023-04-11T18:22:56.477Z,99611.63
2023-04-11T18:25:23.768Z,99595.03
2023-04-11T18:27:50.733Z,99615.25
2023-04-11T18:30:17.936Z,99624.03
2023-04-11T18:32:49.651Z,99608.22
2023-04-11T18:35:17.244Z,99590.78
2023-04-11T18:37:44.502Z,99614.41
2023-04-11T18:40:16.608Z,99617.06
2023-04-11T18:42:46.670Z,99607.44
2023-04-11T18:45:15.596Z,99607.44
2023-04-11T18:47:42.814Z,99618.00
2023-04-11T18:50:10.066Z,99604.88
2023-04-11T18:52:37.045Z,99604.78
2023-04-11T18:55:04.396Z,99602.97
2023-04-11T18:57:34.791Z,99604.59
2023-04-11T19:00:13.173Z,99597.69
2023-04-11T19:02:43.083Z,99608.16
2023-04-11T19:05:14.306Z,99604.63
2023-04-11T19:07:42.836Z,99605.50
2023-04-11T19:10:11.520Z,99606.41
2023-04-11T19:12:39.846Z,99596.78
2023-04-11T19:15:08.294Z,99612.59
2023-04-11T19:17:36.597Z,99615.25
2023-04-11T19:20:07.347Z,99605.50
2023-04-11T19:22:36.032Z,99596.69
2023-04-11T19:25:03.005Z,99596.75
2023-04-11T19:27:30.593Z,99600.31
2023-04-11T19:29:57.638Z,99585.47
2023-04-11T19:32:25.254Z,99566.28
2023-04-11T19:34:52.370Z,99595.31
2023-04-11T19:37:19.671Z,99605.88
2023-04-11T19:39:46.777Z,99585.81
2023-04-11T19:42:13.855Z,99600.75
2023-04-11T19:44:41.121Z,99584.91
2023-04-11T19:47:08.165Z,99607.69
2023-04-11T19:49:35.113Z,99593.66
2023-04-11T19:52:02.088Z,99606.91
2023-04-11T19:54:30.904Z,99599.91
2023-04-11T19:56:57.949Z,99601.66
2023-04-11T19:59:24.875Z,99600.81
2023-04-11T20:01:53.839Z,99594.69
2023-04-11T20:04:21.078Z,99592.19
2023-04-11T20:06:50.965Z,99614.97
2023-04-11T20:09:17.981Z,99600.94
2023-04-11T20:11:47.311Z,99600.88
2023-04-11T20:14:14.325Z,99593.91
2023-04-11T20:16:41.309Z,99619.38
2023-04-11T20:19:08.500Z,99609.75
2023-04-11T20:21:35.486Z,99601.84
2023-04-11T20:24:02.647Z,99590.44
2023-04-11T20:26:30.008Z,99611.50
2023-04-11T20:29:00.170Z,99615.91
2023-04-11T20:31:27.243Z,99618.56
2023-04-11T20:33:54.318Z,99616.81
2023-04-11T20:36:21.421Z,99611.59
2023-04-11T20:38:48.496Z,99622.13
2023-04-11T20:41:19.071Z,99608.13
2023-04-11T20:43:46.031Z,99622.19
2023-04-11T20:46:13.779Z,99609.91
2023-04-11T20:48:43.229Z,99613.41
2023-04-11T20:51:10.349Z,99624.84
2023-04-11T20:53:37.392Z,99627.47
2023-04-11T20:56:04.651Z,99630.09
2023-04-11T20:58:31.581Z,99616.06
2023-04-11T21:00:59.419Z,99618.72
2023-04-11T21:03:30.329Z,99601.22
2023-04-11T21:05:57.698Z,99585.44
2023-04-11T21:08:25.034Z,99569.66
2023-04-11T21:10:52.018Z,99624.03
2023-04-11T21:13:18.983Z,99607.38
2023-04-11T21:15:46.191Z,99625.78
2023-04-11T21:18:13.849Z,99608.28
2023-04-11T21:20:40.954Z,99608.25
2023-04-11T21:23:07.987Z,99623.19
2023-04-11T21:25:36.938Z,99587.22
2023-04-11T21:28:04.086Z,99610.00
2023-04-11T21:30:31.136Z,99625.81
2023-04-11T21:32:58.602Z,99619.66
2023-04-11T21:35:26.177Z,99617.06
2023-04-11T21:37:53.209Z,99587.25
2023-04-11T21:40:20.240Z,99589.88
2023-04-11T21:42:47.335Z,99575.84
2023-04-11T21:45:14.384Z,99576.72
2023-04-11T21:47:41.368Z,99624.97
2023-04-11T21:50:09.023Z,99596.03
2023-04-11T21:52:36.361Z,99615.31
2023-04-11T21:55:04.872Z,99631.09
2023-04-11T21:57:33.999Z,99634.63
2023-04-11T22:00:01.281Z,99615.31
2023-04-11T22:02:40.120Z,99630.22
2023-04-11T22:05:09.578Z,99644.28
2023-04-11T22:07:49.053Z,99599.53
2023-04-11T22:10:23.277Z,99636.41
2023-04-11T22:12:54.098Z,99612.69
2023-04-11T22:15:21.330Z,99592.50
2023-04-11T22:17:51.152Z,99582.84
2023-04-11T22:20:18.785Z,99610.94
2023-04-11T22:22:45.723Z,99629.34
2023-04-11T22:25:12.609Z,99625.88
2023-04-11T22:27:39.660Z,99599.53
2023-04-11T22:30:07.817Z,99582.84
2023-04-11T22:32:34.921Z,99618.84
2023-04-11T22:35:01.970Z,99617.97
2023-04-11T22:37:30.503Z,99595.13
2023-04-11T22:39:57.667Z,99618.84
2023-04-11T22:42:24.943Z,99603.03
2023-04-11T22:44:51.879Z,99617.06
2023-04-11T22:47:21.950Z,99605.66
2023-04-11T22:49:49.030Z,99615.31
2023-04-11T22:52:19.130Z,99608.25
2023-04-11T22:54:47.116Z,99604.75
2023-04-11T22:57:14.089Z,99603.00
2023-04-11T22:59:41.467Z,99603.00
2023-04-11T23:02:09.665Z,99610.91
2023-04-11T23:04:36.800Z,99601.25
2023-04-11T23:07:05.145Z,99617.00
2023-04-11T23:09:32.365Z,99610.91
2023-04-11T23:11:59.330Z,99581.94
2023-04-11T23:14:31.242Z,99581.91
2023-04-11T23:16:58.495Z,99593.31
2023-04-11T23:19:27.325Z,99608.25
2023-04-11T23:21:54.685Z,99601.25
2023-04-11T23:24:22.146Z,99578.41
2023-04-11T23:26:49.189Z,99606.50
2023-04-11T23:29:16.116Z,99584.53
2023-04-11T23:31:43.263Z,99611.78
2023-04-11T23:34:10.249Z,99578.44
2023-04-11T23:36:37.756Z,99591.59
2023-04-11T23:39:05.459Z,99588.06
2023-04-11T23:41:32.475Z,99598.59
2023-04-11T23:43:59.908Z,99595.94
2023-04-11T23:46:27.472Z,99606.47
2023-04-11T23:48:54.548Z,99609.09
2023-04-11T23:51:21.684Z,99606.44
2023-04-11T23:53:48.737Z,99539.69
2023-04-11T23:56:15.813Z,99615.19
2023-04-11T23:58:42.779Z,99592.34
